sensor_id;sensor_type;location;lat;lon;timestamp;P1;durP1;ratioP1;P2;durP2;ratioP2
32297;SDS011;18782;48.984;8.548;2023-03-20T00:01:55;1.88;;;0.70;;
32297;SDS011;18782;48.984;8.548;2023-03-20T00:04:23;2.65;;;0.57;;
32297;SDS011;18782;48.984;8.548;2023-03-20T00:06:51;1.42;;;1.10;;
32297;SDS011;18782;48.984;8.548;2023-03-20T00:09:21;2.50;;;1.23;;
32297;SDS011;18782;48.984;8.548;2023-03-20T00:11:50;4.45;;;1.10;;
32297;SDS011;18782;48.984;8.548;2023-03-20T00:14:20;1.23;;;1.00;;
32297;SDS011;18782;48.984;8.548;2023-03-20T00:16:50;3.67;;;1.23;;
32297;SDS011;18782;48.984;8.548;2023-03-20T00:19:19;2.95;;;1.65;;
32297;SDS011;18782;48.984;8.548;2023-03-20T00:21:49;3.83;;;1.80;;
32297;SDS011;18782;48.984;8.548;2023-03-20T00:24:17;2.70;;;1.90;;
32297;SDS011;18782;48.984;8.548;2023-03-20T00:26:46;2.28;;;1.23;;
32297;SDS011;18782;48.984;8.548;2023-03-20T00:29:17;2.17;;;1.38;;
32297;SDS011;18782;48.984;8.548;2023-03-20T00:31:48;2.22;;;1.58;;
32297;SDS011;18782;48.984;8.548;2023-03-20T00:34:17;2.35;;;1.80;;
32297;SDS011;18782;48.984;8.548;2023-03-20T00:36:47;2.58;;;1.48;;
32297;SDS011;18782;48.984;8.548;2023-03-20T00:39:15;2.35;;;1.60;;
32297;SDS011;18782;48.984;8.548;2023-03-20T00:41:43;4.78;;;1.88;;
32297;SDS011;18782;48.984;8.548;2023-03-20T00:44:19;2.28;;;1.83;;
32297;SDS011;18782;48.984;8.548;2023-03-20T00:46:50;3.30;;;1.40;;
32297;SDS011;18782;48.984;8.548;2023-03-20T00:49:20;2.00;;;1.42;;
32297;SDS011;18782;48.984;8.548;2023-03-20T00:51:51;3.03;;;1.67;;
32297;SDS011;18782;48.984;8.548;2023-03-20T00:54:19;1.98;;;1.42;;
32297;SDS011;18782;48.984;8.548;2023-03-20T00:56:47;2.20;;;1.30;;
32297;SDS011;18782;48.984;8.548;2023-03-20T00:59:22;2.83;;;1.50;;
32297;SDS011;18782;48.984;8.548;2023-03-20T01:01:53;5.50;;;2.45;;
32297;SDS011;18782;48.984;8.548;2023-03-20T01:04:21;2.38;;;1.77;;
32297;SDS011;18782;48.984;8.548;2023-03-20T01:06:49;3.28;;;1.60;;
32297;SDS011;18782;48.984;8.548;2023-03-20T01:09:17;3.83;;;1.40;;
32297;SDS011;18782;48.984;8.548;2023-03-20T01:11:45;2.35;;;1.50;;
32297;SDS011;18782;48.984;8.548;2023-03-20T01:14:13;2.80;;;1.20;;
32297;SDS011;18782;48.984;8.548;2023-03-20T01:16:44;2.85;;;1.60;;
32297;SDS011;18782;48.984;8.548;2023-03-20T01:19:12;2.00;;;1.38;;
32297;SDS011;18782;48.984;8.548;2023-03-20T01:21:42;2.95;;;1.50;;
32297;SDS011;18782;48.984;8.548;2023-03-20T01:24:10;3.58;;;1.80;;
32297;SDS011;18782;48.984;8.548;2023-03-20T01:26:38;2.20;;;1.50;;
32297;SDS011;18782;48.984;8.548;2023-03-20T01:29:11;3.28;;;1.35;;
32297;SDS011;18782;48.984;8.548;2023-03-20T01:34:41;1.90;;;1.10;;
32297;SDS011;18782;48.984;8.548;2023-03-20T01:37:08;1.67;;;0.90;;
32297;SDS011;18782;48.984;8.548;2023-03-20T01:39:39;2.95;;;1.25;;
32297;SDS011;18782;48.984;8.548;2023-03-20T01:42:07;2.47;;;1.02;;
32297;SDS011;18782;48.984;8.548;2023-03-20T01:44:41;1.63;;;1.10;;
32297;SDS011;18782;48.984;8.548;2023-03-20T01:47:14;3.20;;;0.98;;
32297;SDS011;18782;48.984;8.548;2023-03-20T01:52:49;1.45;;;0.80;;
32297;SDS011;18782;48.984;8.548;2023-03-20T01:57:55;1.35;;;1.13;;
32297;SDS011;18782;48.984;8.548;2023-03-20T02:00:29;1.08;;;0.75;;
32297;SDS011;18782;48.984;8.548;2023-03-20T02:02:58;1.45;;;1.00;;
32297;SDS011;18782;48.984;8.548;2023-03-20T02:05:49;1.95;;;1.10;;
32297;SDS011;18782;48.984;8.548;2023-03-20T02:08:20;2.15;;;1.10;;
32297;SDS011;18782;48.984;8.548;2023-03-20T02:10:52;2.10;;;1.20;;
32297;SDS011;18782;48.984;8.548;2023-03-20T02:13:25;1.98;;;1.20;;
32297;SDS011;18782;48.984;8.548;2023-03-20T02:15:56;2.20;;;1.48;;
32297;SDS011;18782;48.984;8.548;2023-03-20T02:18:45;4.82;;;2.45;;
32297;SDS011;18782;48.984;8.548;2023-03-20T02:21:22;2.90;;;1.48;;
32297;SDS011;18782;48.984;8.548;2023-03-20T02:27:12;3.13;;;1.20;;
32297;SDS011;18782;48.984;8.548;2023-03-20T02:30:00;2.75;;;1.08;;
32297;SDS011;18782;48.984;8.548;2023-03-20T02:38:56;2.53;;;1.20;;
32297;SDS011;18782;48.984;8.548;2023-03-20T02:41:34;1.40;;;0.90;;
32297;SDS011;18782;48.984;8.548;2023-03-20T02:44:08;2.38;;;1.05;;
32297;SDS011;18782;48.984;8.548;2023-03-20T02:46:42;1.17;;;0.80;;
32297;SDS011;18782;48.984;8.548;2023-03-20T02:49:23;2.35;;;1.00;;
32297;SDS011;18782;48.984;8.548;2023-03-20T02:57:50;2.13;;;0.80;;
32297;SDS011;18782;48.984;8.548;2023-03-20T03:00:27;2.53;;;0.90;;
32297;SDS011;18782;48.984;8.548;2023-03-20T03:03:00;1.30;;;0.87;;
32297;SDS011;18782;48.984;8.548;2023-03-20T03:05:34;1.77;;;1.00;;
32297;SDS011;18782;48.984;8.548;2023-03-20T03:08:05;3.22;;;0.90;;
32297;SDS011;18782;48.984;8.548;2023-03-20T03:10:36;1.30;;;0.90;;
32297;SDS011;18782;48.984;8.548;2023-03-20T03:13:11;1.83;;;1.45;;
32297;SDS011;18782;48.984;8.548;2023-03-20T03:15:42;2.25;;;1.70;;
32297;SDS011;18782;48.984;8.548;2023-03-20T03:18:14;2.97;;;2.15;;
32297;SDS011;18782;48.984;8.548;2023-03-20T03:20:45;2.30;;;1.43;;
32297;SDS011;18782;48.984;8.548;2023-03-20T03:23:17;2.25;;;1.48;;
32297;SDS011;18782;48.984;8.548;2023-03-20T03:25:57;5.82;;;4.68;;
32297;SDS011;18782;48.984;8.548;2023-03-20T03:28:30;5.07;;;3.58;;
32297;SDS011;18782;48.984;8.548;2023-03-20T03:31:04;5.18;;;3.63;;
32297;SDS011;18782;48.984;8.548;2023-03-20T03:33:35;5.35;;;4.20;;
32297;SDS011;18782;48.984;8.548;2023-03-20T03:36:07;8.32;;;4.85;;
32297;SDS011;18782;48.984;8.548;2023-03-20T03:38:47;6.28;;;4.82;;
32297;SDS011;18782;48.984;8.548;2023-03-20T03:41:23;6.82;;;5.30;;
32297;SDS011;18782;48.984;8.548;2023-03-20T03:44:00;5.88;;;4.35;;
32297;SDS011;18782;48.984;8.548;2023-03-20T03:46:39;5.43;;;4.75;;
32297;SDS011;18782;48.984;8.548;2023-03-20T03:49:12;6.18;;;5.00;;
32297;SDS011;18782;48.984;8.548;2023-03-20T03:51:45;8.60;;;6.45;;
32297;SDS011;18782;48.984;8.548;2023-03-20T03:54:17;8.50;;;5.90;;
32297;SDS011;18782;48.984;8.548;2023-03-20T03:57:09;10.25;;;6.10;;
32297;SDS011;18782;48.984;8.548;2023-03-20T03:59:40;6.65;;;4.78;;
32297;SDS011;18782;48.984;8.548;2023-03-20T04:02:11;6.35;;;5.13;;
32297;SDS011;18782;48.984;8.548;2023-03-20T04:04:41;6.30;;;5.00;;
32297;SDS011;18782;48.984;8.548;2023-03-20T04:07:12;6.28;;;5.03;;
32297;SDS011;18782;48.984;8.548;2023-03-20T04:09:40;6.47;;;4.88;;
32297;SDS011;18782;48.984;8.548;2023-03-20T04:12:09;5.10;;;4.13;;
32297;SDS011;18782;48.984;8.548;2023-03-20T04:14:58;5.28;;;4.30;;
32297;SDS011;18782;48.984;8.548;2023-03-20T04:17:30;6.00;;;4.30;;
32297;SDS011;18782;48.984;8.548;2023-03-20T04:19:58;6.03;;;4.57;;
32297;SDS011;18782;48.984;8.548;2023-03-20T04:22:26;5.65;;;4.50;;
32297;SDS011;18782;48.984;8.548;2023-03-20T04:24:58;5.32;;;4.40;;
32297;SDS011;18782;48.984;8.548;2023-03-20T04:27:26;7.00;;;4.75;;
32297;SDS011;18782;48.984;8.548;2023-03-20T04:29:55;5.53;;;4.43;;
32297;SDS011;18782;48.984;8.548;2023-03-20T04:32:47;6.22;;;4.95;;
32297;SDS011;18782;48.984;8.548;2023-03-20T04:35:28;6.82;;;5.32;;
32297;SDS011;18782;48.984;8.548;2023-03-20T04:38:01;6.25;;;5.65;;
32297;SDS011;18782;48.984;8.548;2023-03-20T04:40:31;6.47;;;5.32;;
32297;SDS011;18782;48.984;8.548;2023-03-20T04:42:59;7.55;;;6.50;;
32297;SDS011;18782;48.984;8.548;2023-03-20T04:45:26;7.65;;;6.22;;
32297;SDS011;18782;48.984;8.548;2023-03-20T04:47:56;8.75;;;6.28;;
32297;SDS011;18782;48.984;8.548;2023-03-20T04:50:23;8.00;;;6.35;;
32297;SDS011;18782;48.984;8.548;2023-03-20T04:52:52;7.32;;;6.18;;
32297;SDS011;18782;48.984;8.548;2023-03-20T04:55:20;8.75;;;6.90;;
32297;SDS011;18782;48.984;8.548;2023-03-20T04:57:48;8.57;;;6.78;;
32297;SDS011;18782;48.984;8.548;2023-03-20T05:00:17;7.43;;;6.22;;
32297;SDS011;18782;48.984;8.548;2023-03-20T05:02:45;7.47;;;6.30;;
32297;SDS011;18782;48.984;8.548;2023-03-20T05:05:15;7.43;;;5.53;;
32297;SDS011;18782;48.984;8.548;2023-03-20T05:07:43;9.40;;;6.75;;
32297;SDS011;18782;48.984;8.548;2023-03-20T05:10:18;7.78;;;6.50;;
32297;SDS011;18782;48.984;8.548;2023-03-20T05:12:54;7.32;;;5.68;;
32297;SDS011;18782;48.984;8.548;2023-03-20T05:15:29;9.60;;;6.88;;
32297;SDS011;18782;48.984;8.548;2023-03-20T05:18:29;9.98;;;7.53;;
32297;SDS011;18782;48.984;8.548;2023-03-20T05:21:27;13.20;;;8.27;;
32297;SDS011;18782;48.984;8.548;2023-03-20T05:24:15;9.32;;;6.95;;
32297;SDS011;18782;48.984;8.548;2023-03-20T05:27:01;8.48;;;6.88;;
32297;SDS011;18782;48.984;8.548;2023-03-20T05:29:45;11.05;;;7.55;;
32297;SDS011;18782;48.984;8.548;2023-03-20T05:32:25;10.30;;;8.07;;
32297;SDS011;18782;48.984;8.548;2023-03-20T05:35:06;9.48;;;7.60;;
32297;SDS011;18782;48.984;8.548;2023-03-20T05:37:52;9.70;;;7.43;;
32297;SDS011;18782;48.984;8.548;2023-03-20T05:40:39;13.15;;;8.60;;
32297;SDS011;18782;48.984;8.548;2023-03-20T05:43:13;11.30;;;8.52;;
32297;SDS011;18782;48.984;8.548;2023-03-20T05:45:54;10.68;;;8.05;;
32297;SDS011;18782;48.984;8.548;2023-03-20T05:48:28;10.73;;;7.65;;
32297;SDS011;18782;48.984;8.548;2023-03-20T05:51:11;9.15;;;7.55;;
32297;SDS011;18782;48.984;8.548;2023-03-20T05:53:54;9.65;;;7.82;;
32297;SDS011;18782;48.984;8.548;2023-03-20T05:56:42;9.88;;;7.50;;
32297;SDS011;18782;48.984;8.548;2023-03-20T05:59:21;10.30;;;7.90;;
32297;SDS011;18782;48.984;8.548;2023-03-20T06:02:03;10.98;;;7.13;;
32297;SDS011;18782;48.984;8.548;2023-03-20T06:04:33;11.18;;;7.88;;
32297;SDS011;18782;48.984;8.548;2023-03-20T06:07:37;11.40;;;8.68;;
32297;SDS011;18782;48.984;8.548;2023-03-20T06:10:11;11.10;;;8.55;;
32297;SDS011;18782;48.984;8.548;2023-03-20T06:12:40;11.95;;;8.25;;
32297;SDS011;18782;48.984;8.548;2023-03-20T06:15:08;10.48;;;7.95;;
32297;SDS011;18782;48.984;8.548;2023-03-20T06:17:41;10.15;;;7.47;;
32297;SDS011;18782;48.984;8.548;2023-03-20T06:20:11;12.77;;;8.68;;
32297;SDS011;18782;48.984;8.548;2023-03-20T06:22:39;10.27;;;8.10;;
32297;SDS011;18782;48.984;8.548;2023-03-20T06:25:07;12.15;;;8.32;;
32297;SDS011;18782;48.984;8.548;2023-03-20T06:27:41;10.10;;;8.02;;
32297;SDS011;18782;48.984;8.548;2023-03-20T06:30:09;9.52;;;7.45;;
32297;SDS011;18782;48.984;8.548;2023-03-20T06:32:39;11.55;;;8.52;;
32297;SDS011;18782;48.984;8.548;2023-03-20T06:35:09;11.25;;;8.40;;
32297;SDS011;18782;48.984;8.548;2023-03-20T06:37:42;14.50;;;8.90;;
32297;SDS011;18782;48.984;8.548;2023-03-20T06:40:14;10.85;;;7.78;;
32297;SDS011;18782;48.984;8.548;2023-03-20T06:42:44;10.65;;;7.88;;
32297;SDS011;18782;48.984;8.548;2023-03-20T06:45:12;12.73;;;8.15;;
32297;SDS011;18782;48.984;8.548;2023-03-20T06:47:58;10.13;;;7.70;;
32297;SDS011;18782;48.984;8.548;2023-03-20T06:50:26;11.35;;;8.15;;
32297;SDS011;18782;48.984;8.548;2023-03-20T06:52:57;10.35;;;7.70;;
32297;SDS011;18782;48.984;8.548;2023-03-20T06:55:39;10.60;;;7.65;;
32297;SDS011;18782;48.984;8.548;2023-03-20T06:58:08;11.95;;;8.23;;
32297;SDS011;18782;48.984;8.548;2023-03-20T07:00:36;10.57;;;7.43;;
32297;SDS011;18782;48.984;8.548;2023-03-20T07:03:06;10.77;;;7.55;;
32297;SDS011;18782;48.984;8.548;2023-03-20T07:05:33;10.98;;;7.25;;
32297;SDS011;18782;48.984;8.548;2023-03-20T07:08:05;10.52;;;7.47;;
32297;SDS011;18782;48.984;8.548;2023-03-20T07:10:33;9.82;;;7.47;;
32297;SDS011;18782;48.984;8.548;2023-03-20T07:13:01;9.80;;;7.03;;
32297;SDS011;18782;48.984;8.548;2023-03-20T07:15:32;10.38;;;7.38;;
32297;SDS011;18782;48.984;8.548;2023-03-20T07:17:59;9.70;;;6.95;;
32297;SDS011;18782;48.984;8.548;2023-03-20T07:20:27;9.15;;;6.63;;
32297;SDS011;18782;48.984;8.548;2023-03-20T07:22:55;10.18;;;6.30;;
32297;SDS011;18782;48.984;8.548;2023-03-20T07:25:25;8.70;;;6.35;;
32297;SDS011;18782;48.984;8.548;2023-03-20T07:28:08;10.07;;;6.53;;
32297;SDS011;18782;48.984;8.548;2023-03-20T07:30:41;7.85;;;5.95;;
32297;SDS011;18782;48.984;8.548;2023-03-20T07:33:09;9.43;;;6.93;;
32297;SDS011;18782;48.984;8.548;2023-03-20T07:35:38;8.48;;;6.43;;
32297;SDS011;18782;48.984;8.548;2023-03-20T07:38:06;9.80;;;6.55;;
32297;SDS011;18782;48.984;8.548;2023-03-20T07:40:43;8.80;;;6.03;;
32297;SDS011;18782;48.984;8.548;2023-03-20T07:43:14;8.88;;;6.40;;
32297;SDS011;18782;48.984;8.548;2023-03-20T07:46:09;8.93;;;6.68;;
32297;SDS011;18782;48.984;8.548;2023-03-20T07:48:37;9.57;;;6.28;;
32297;SDS011;18782;48.984;8.548;2023-03-20T07:51:05;8.95;;;5.97;;
32297;SDS011;18782;48.984;8.548;2023-03-20T07:53:33;11.02;;;6.43;;
32297;SDS011;18782;48.984;8.548;2023-03-20T07:56:02;10.43;;;7.10;;
32297;SDS011;18782;48.984;8.548;2023-03-20T07:58:30;9.27;;;6.00;;
32297;SDS011;18782;48.984;8.548;2023-03-20T08:01:00;8.88;;;5.97;;
32297;SDS011;18782;48.984;8.548;2023-03-20T08:03:30;9.40;;;6.43;;
32297;SDS011;18782;48.984;8.548;2023-03-20T08:05:58;9.82;;;6.13;;
32297;SDS011;18782;48.984;8.548;2023-03-20T08:08:27;9.10;;;6.28;;
32297;SDS011;18782;48.984;8.548;2023-03-20T08:10:54;8.57;;;6.47;;
32297;SDS011;18782;48.984;8.548;2023-03-20T08:13:22;8.20;;;6.40;;
32297;SDS011;18782;48.984;8.548;2023-03-20T08:15:49;8.50;;;5.65;;
32297;SDS011;18782;48.984;8.548;2023-03-20T08:18:17;10.45;;;6.30;;
32297;SDS011;18782;48.984;8.548;2023-03-20T08:20:48;7.90;;;5.78;;
32297;SDS011;18782;48.984;8.548;2023-03-20T08:23:16;8.13;;;6.57;;
32297;SDS011;18782;48.984;8.548;2023-03-20T08:25:46;9.05;;;6.07;;
32297;SDS011;18782;48.984;8.548;2023-03-20T08:28:14;8.82;;;6.00;;
32297;SDS011;18782;48.984;8.548;2023-03-20T08:30:42;8.18;;;6.20;;
32297;SDS011;18782;48.984;8.548;2023-03-20T08:33:10;8.75;;;6.07;;
32297;SDS011;18782;48.984;8.548;2023-03-20T08:35:39;9.30;;;5.80;;
32297;SDS011;18782;48.984;8.548;2023-03-20T08:38:08;9.52;;;6.00;;
32297;SDS011;18782;48.984;8.548;2023-03-20T08:40:39;8.68;;;6.18;;
32297;SDS011;18782;48.984;8.548;2023-03-20T08:43:07;9.98;;;5.97;;
32297;SDS011;18782;48.984;8.548;2023-03-20T08:45:35;7.53;;;5.25;;
32297;SDS011;18782;48.984;8.548;2023-03-20T08:48:03;7.53;;;5.57;;
32297;SDS011;18782;48.984;8.548;2023-03-20T08:50:31;7.13;;;5.10;;
32297;SDS011;18782;48.984;8.548;2023-03-20T08:52:58;7.00;;;4.75;;
32297;SDS011;18782;48.984;8.548;2023-03-20T08:55:27;7.07;;;4.80;;
32297;SDS011;18782;48.984;8.548;2023-03-20T08:57:55;8.85;;;6.18;;
32297;SDS011;18782;48.984;8.548;2023-03-20T09:00:23;9.02;;;5.32;;
32297;SDS011;18782;48.984;8.548;2023-03-20T09:02:52;8.82;;;5.50;;
32297;SDS011;18782;48.984;8.548;2023-03-20T09:05:20;8.07;;;5.63;;
32297;SDS011;18782;48.984;8.548;2023-03-20T09:07:48;8.70;;;5.80;;
32297;SDS011;18782;48.984;8.548;2023-03-20T09:10:16;8.57;;;6.18;;
32297;SDS011;18782;48.984;8.548;2023-03-20T09:12:45;8.52;;;5.65;;
32297;SDS011;18782;48.984;8.548;2023-03-20T09:15:13;8.65;;;6.22;;
32297;SDS011;18782;48.984;8.548;2023-03-20T09:17:40;9.32;;;5.93;;
32297;SDS011;18782;48.984;8.548;2023-03-20T09:20:08;9.45;;;5.43;;
32297;SDS011;18782;48.984;8.548;2023-03-20T09:22:37;9.93;;;5.97;;
32297;SDS011;18782;48.984;8.548;2023-03-20T09:25:06;7.07;;;5.32;;
32297;SDS011;18782;48.984;8.548;2023-03-20T09:27:34;7.15;;;5.28;;
32297;SDS011;18782;48.984;8.548;2023-03-20T09:30:04;7.97;;;5.32;;
32297;SDS011;18782;48.984;8.548;2023-03-20T09:32:33;7.32;;;5.20;;
32297;SDS011;18782;48.984;8.548;2023-03-20T09:35:01;7.00;;;4.80;;
32297;SDS011;18782;48.984;8.548;2023-03-20T09:37:29;7.18;;;5.15;;
32297;SDS011;18782;48.984;8.548;2023-03-20T09:39:57;7.35;;;4.90;;
32297;SDS011;18782;48.984;8.548;2023-03-20T09:42:29;8.77;;;4.85;;
32297;SDS011;18782;48.984;8.548;2023-03-20T09:45:06;8.52;;;5.20;;
32297;SDS011;18782;48.984;8.548;2023-03-20T09:47:43;6.32;;;4.65;;
32297;SDS011;18782;48.984;8.548;2023-03-20T09:50:17;6.80;;;4.25;;
32297;SDS011;18782;48.984;8.548;2023-03-20T09:52:53;7.50;;;4.45;;
32297;SDS011;18782;48.984;8.548;2023-03-20T09:55:26;6.18;;;4.00;;
32297;SDS011;18782;48.984;8.548;2023-03-20T09:58:02;4.63;;;3.47;;
32297;SDS011;18782;48.984;8.548;2023-03-20T10:00:37;5.60;;;3.17;;
32297;SDS011;18782;48.984;8.548;2023-03-20T10:03:13;6.25;;;3.90;;
32297;SDS011;18782;48.984;8.548;2023-03-20T10:05:45;5.80;;;3.65;;
32297;SDS011;18782;48.984;8.548;2023-03-20T10:08:16;5.15;;;3.92;;
32297;SDS011;18782;48.984;8.548;2023-03-20T10:10:49;5.30;;;3.70;;
32297;SDS011;18782;48.984;8.548;2023-03-20T10:13:24;6.13;;;3.55;;
32297;SDS011;18782;48.984;8.548;2023-03-20T10:16:08;6.75;;;3.80;;
32297;SDS011;18782;48.984;8.548;2023-03-20T10:18:45;5.13;;;4.00;;
32297;SDS011;18782;48.984;8.548;2023-03-20T10:21:18;4.78;;;3.45;;
32297;SDS011;18782;48.984;8.548;2023-03-20T10:23:52;5.60;;;3.70;;
32297;SDS011;18782;48.984;8.548;2023-03-20T10:26:26;6.15;;;3.90;;
32297;SDS011;18782;48.984;8.548;2023-03-20T10:28:56;5.22;;;3.70;;
32297;SDS011;18782;48.984;8.548;2023-03-20T10:31:30;6.53;;;4.15;;
32297;SDS011;18782;48.984;8.548;2023-03-20T10:34:11;5.47;;;3.83;;
32297;SDS011;18782;48.984;8.548;2023-03-20T10:36:53;5.07;;;3.58;;
32297;SDS011;18782;48.984;8.548;2023-03-20T10:39:33;5.05;;;3.83;;
32297;SDS011;18782;48.984;8.548;2023-03-20T10:42:16;6.38;;;3.60;;
32297;SDS011;18782;48.984;8.548;2023-03-20T10:44:49;5.57;;;3.60;;
32297;SDS011;18782;48.984;8.548;2023-03-20T10:47:24;4.95;;;3.25;;
32297;SDS011;18782;48.984;8.548;2023-03-20T10:49:57;5.47;;;3.60;;
32297;SDS011;18782;48.984;8.548;2023-03-20T10:52:29;5.07;;;3.33;;
32297;SDS011;18782;48.984;8.548;2023-03-20T10:55:02;4.65;;;3.38;;
32297;SDS011;18782;48.984;8.548;2023-03-20T10:57:34;5.78;;;2.92;;
32297;SDS011;18782;48.984;8.548;2023-03-20T11:00:12;4.47;;;3.00;;
32297;SDS011;18782;48.984;8.548;2023-03-20T11:02:41;5.32;;;3.53;;
32297;SDS011;18782;48.984;8.548;2023-03-20T11:05:10;5.97;;;3.38;;
32297;SDS011;18782;48.984;8.548;2023-03-20T11:07:48;5.28;;;3.45;;
32297;SDS011;18782;48.984;8.548;2023-03-20T11:10:19;4.50;;;3.30;;
32297;SDS011;18782;48.984;8.548;2023-03-20T11:12:48;4.68;;;2.92;;
32297;SDS011;18782;48.984;8.548;2023-03-20T11:15:19;5.53;;;3.05;;
32297;SDS011;18782;48.984;8.548;2023-03-20T11:17:54;4.65;;;3.38;;
32297;SDS011;18782;48.984;8.548;2023-03-20T11:20:24;4.40;;;3.15;;
32297;SDS011;18782;48.984;8.548;2023-03-20T11:22:56;5.25;;;3.30;;
32297;SDS011;18782;48.984;8.548;2023-03-20T11:25:28;4.63;;;2.95;;
32297;SDS011;18782;48.984;8.548;2023-03-20T11:30:58;5.30;;;3.10;;
32297;SDS011;18782;48.984;8.548;2023-03-20T11:33:32;2.90;;;1.88;;
32297;SDS011;18782;48.984;8.548;2023-03-20T11:36:09;4.80;;;3.10;;
32297;SDS011;18782;48.984;8.548;2023-03-20T11:38:42;4.65;;;2.78;;
32297;SDS011;18782;48.984;8.548;2023-03-20T11:41:15;5.47;;;3.45;;
32297;SDS011;18782;48.984;8.548;2023-03-20T11:43:44;5.78;;;3.03;;
32297;SDS011;18782;48.984;8.548;2023-03-20T11:46:12;4.20;;;2.90;;
32297;SDS011;18782;48.984;8.548;2023-03-20T11:48:43;5.95;;;3.00;;
32297;SDS011;18782;48.984;8.548;2023-03-20T11:51:13;4.97;;;3.10;;
32297;SDS011;18782;48.984;8.548;2023-03-20T11:53:53;4.40;;;3.13;;
32297;SDS011;18782;48.984;8.548;2023-03-20T11:56:26;4.35;;;3.40;;
32297;SDS011;18782;48.984;8.548;2023-03-20T11:58:56;4.95;;;3.03;;
32297;SDS011;18782;48.984;8.548;2023-03-20T12:01:26;4.63;;;3.50;;
32297;SDS011;18782;48.984;8.548;2023-03-20T12:04:00;4.53;;;3.53;;
32297;SDS011;18782;48.984;8.548;2023-03-20T12:06:36;5.63;;;3.20;;
32297;SDS011;18782;48.984;8.548;2023-03-20T12:09:10;4.57;;;2.70;;
32297;SDS011;18782;48.984;8.548;2023-03-20T12:11:47;5.75;;;3.50;;
32297;SDS011;18782;48.984;8.548;2023-03-20T12:14:25;8.63;;;5.47;;
32297;SDS011;18782;48.984;8.548;2023-03-20T12:17:03;4.05;;;2.88;;
32297;SDS011;18782;48.984;8.548;2023-03-20T12:19:58;3.28;;;2.30;;
32297;SDS011;18782;48.984;8.548;2023-03-20T12:22:30;4.47;;;2.55;;
32297;SDS011;18782;48.984;8.548;2023-03-20T12:25:06;4.50;;;2.95;;
32297;SDS011;18782;48.984;8.548;2023-03-20T12:27:42;7.13;;;3.38;;
32297;SDS011;18782;48.984;8.548;2023-03-20T12:30:15;4.00;;;2.80;;
32297;SDS011;18782;48.984;8.548;2023-03-20T12:32:47;4.30;;;2.30;;
32297;SDS011;18782;48.984;8.548;2023-03-20T12:35:25;4.07;;;2.63;;
32297;SDS011;18782;48.984;8.548;2023-03-20T12:37:54;4.53;;;2.28;;
32297;SDS011;18782;48.984;8.548;2023-03-20T12:40:23;5.03;;;2.40;;
32297;SDS011;18782;48.984;8.548;2023-03-20T12:43:01;3.80;;;2.67;;
32297;SDS011;18782;48.984;8.548;2023-03-20T12:45:32;3.72;;;2.90;;
32297;SDS011;18782;48.984;8.548;2023-03-20T12:48:15;4.47;;;3.08;;
32297;SDS011;18782;48.984;8.548;2023-03-20T12:51:04;4.28;;;3.10;;
32297;SDS011;18782;48.984;8.548;2023-03-20T12:53:42;4.95;;;3.17;;
32297;SDS011;18782;48.984;8.548;2023-03-20T12:56:25;5.25;;;3.45;;
32297;SDS011;18782;48.984;8.548;2023-03-20T12:58:58;5.80;;;2.67;;
32297;SDS011;18782;48.984;8.548;2023-03-20T13:01:34;6.38;;;4.70;;
32297;SDS011;18782;48.984;8.548;2023-03-20T13:04:26;4.28;;;3.05;;
32297;SDS011;18782;48.984;8.548;2023-03-20T13:07:15;4.25;;;3.47;;
32297;SDS011;18782;48.984;8.548;2023-03-20T13:09:48;3.63;;;2.33;;
32297;SDS011;18782;48.984;8.548;2023-03-20T13:12:26;3.53;;;2.53;;
32297;SDS011;18782;48.984;8.548;2023-03-20T13:15:01;2.88;;;2.20;;
32297;SDS011;18782;48.984;8.548;2023-03-20T13:17:41;3.78;;;2.50;;
32297;SDS011;18782;48.984;8.548;2023-03-20T13:20:20;4.40;;;2.58;;
32297;SDS011;18782;48.984;8.548;2023-03-20T13:22:56;8.68;;;6.15;;
32297;SDS011;18782;48.984;8.548;2023-03-20T13:25:34;4.38;;;3.63;;
32297;SDS011;18782;48.984;8.548;2023-03-20T13:28:23;11.85;;;6.45;;
32297;SDS011;18782;48.984;8.548;2023-03-20T13:30:58;5.30;;;2.78;;
32297;SDS011;18782;48.984;8.548;2023-03-20T13:33:34;3.47;;;2.33;;
32297;SDS011;18782;48.984;8.548;2023-03-20T13:36:14;5.50;;;4.32;;
32297;SDS011;18782;48.984;8.548;2023-03-20T13:38:53;5.45;;;3.90;;
32297;SDS011;18782;48.984;8.548;2023-03-20T13:41:26;4.28;;;2.53;;
32297;SDS011;18782;48.984;8.548;2023-03-20T13:43:55;4.78;;;2.70;;
32297;SDS011;18782;48.984;8.548;2023-03-20T13:46:27;3.72;;;2.08;;
32297;SDS011;18782;48.984;8.548;2023-03-20T13:49:01;2.85;;;1.67;;
32297;SDS011;18782;48.984;8.548;2023-03-20T13:51:35;2.55;;;1.55;;
32297;SDS011;18782;48.984;8.548;2023-03-20T13:54:17;3.00;;;1.30;;
32297;SDS011;18782;48.984;8.548;2023-03-20T13:56:58;2.28;;;1.40;;
32297;SDS011;18782;48.984;8.548;2023-03-20T13:59:35;2.08;;;1.25;;
32297;SDS011;18782;48.984;8.548;2023-03-20T14:02:17;3.33;;;1.60;;
32297;SDS011;18782;48.984;8.548;2023-03-20T14:04:55;2.50;;;1.30;;
32297;SDS011;18782;48.984;8.548;2023-03-20T14:07:28;1.70;;;1.13;;
32297;SDS011;18782;48.984;8.548;2023-03-20T14:09:58;2.13;;;1.40;;
32297;SDS011;18782;48.984;8.548;2023-03-20T14:13:08;2.55;;;1.30;;
32297;SDS011;18782;48.984;8.548;2023-03-20T14:15:51;2.78;;;1.40;;
32297;SDS011;18782;48.984;8.548;2023-03-20T14:18:21;2.60;;;1.58;;
32297;SDS011;18782;48.984;8.548;2023-03-20T14:20:52;3.38;;;1.40;;
32297;SDS011;18782;48.984;8.548;2023-03-20T14:23:26;2.38;;;1.48;;
32297;SDS011;18782;48.984;8.548;2023-03-20T14:26:16;2.42;;;1.73;;
32297;SDS011;18782;48.984;8.548;2023-03-20T14:28:51;2.55;;;1.70;;
32297;SDS011;18782;48.984;8.548;2023-03-20T14:31:23;3.53;;;1.38;;
32297;SDS011;18782;48.984;8.548;2023-03-20T14:33:56;3.20;;;1.52;;
32297;SDS011;18782;48.984;8.548;2023-03-20T14:36:30;2.65;;;1.40;;
32297;SDS011;18782;48.984;8.548;2023-03-20T14:39:13;3.55;;;1.30;;
32297;SDS011;18782;48.984;8.548;2023-03-20T14:41:57;2.88;;;1.40;;
32297;SDS011;18782;48.984;8.548;2023-03-20T14:44:43;3.08;;;1.48;;
32297;SDS011;18782;48.984;8.548;2023-03-20T14:47:21;2.75;;;1.42;;
32297;SDS011;18782;48.984;8.548;2023-03-20T14:49:56;3.20;;;1.52;;
32297;SDS011;18782;48.984;8.548;2023-03-20T14:52:34;3.72;;;2.03;;
32297;SDS011;18782;48.984;8.548;2023-03-20T14:55:32;1.92;;;1.30;;
32297;SDS011;18782;48.984;8.548;2023-03-20T15:01:27;1.83;;;1.50;;
32297;SDS011;18782;48.984;8.548;2023-03-20T15:04:09;3.17;;;1.73;;
32297;SDS011;18782;48.984;8.548;2023-03-20T15:06:50;2.40;;;1.48;;
32297;SDS011;18782;48.984;8.548;2023-03-20T15:09:22;2.67;;;1.70;;
32297;SDS011;18782;48.984;8.548;2023-03-20T15:11:52;2.75;;;1.60;;
32297;SDS011;18782;48.984;8.548;2023-03-20T15:14:26;3.53;;;1.85;;
32297;SDS011;18782;48.984;8.548;2023-03-20T15:16:55;2.65;;;1.73;;
32297;SDS011;18782;48.984;8.548;2023-03-20T15:19:24;3.45;;;1.48;;
32297;SDS011;18782;48.984;8.548;2023-03-20T15:21:52;2.85;;;1.75;;
32297;SDS011;18782;48.984;8.548;2023-03-20T15:24:21;4.53;;;1.58;;
32297;SDS011;18782;48.984;8.548;2023-03-20T15:26:50;2.65;;;1.40;;
32297;SDS011;18782;48.984;8.548;2023-03-20T15:29:19;3.25;;;1.45;;
32297;SDS011;18782;48.984;8.548;2023-03-20T15:31:51;3.05;;;1.60;;
32297;SDS011;18782;48.984;8.548;2023-03-20T15:34:38;4.43;;;2.40;;
32297;SDS011;18782;48.984;8.548;2023-03-20T15:37:08;3.63;;;1.45;;
32297;SDS011;18782;48.984;8.548;2023-03-20T15:39:41;2.38;;;1.20;;
32297;SDS011;18782;48.984;8.548;2023-03-20T15:42:11;2.22;;;1.50;;
32297;SDS011;18782;48.984;8.548;2023-03-20T15:44:41;4.85;;;1.33;;
32297;SDS011;18782;48.984;8.548;2023-03-20T15:47:15;2.15;;;1.40;;
32297;SDS011;18782;48.984;8.548;2023-03-20T15:49:50;5.63;;;2.88;;
32297;SDS011;18782;48.984;8.548;2023-03-20T15:52:20;3.17;;;1.55;;
32297;SDS011;18782;48.984;8.548;2023-03-20T15:54:54;2.38;;;1.10;;